createdAt,value
2017-09-16T00:00:27.816Z,89.15
2017-09-16T00:00:56.071Z,89.63
2017-09-16T00:01:24.061Z,89.43
2017-09-16T00:01:52.086Z,89.43
2017-09-16T00:02:20.105Z,89.72
2017-09-16T00:02:48.175Z,89.92
2017-09-16T00:03:16.088Z,89.53
2017-09-16T00:03:44.032Z,89.92
2017-09-16T00:04:12.085Z,89.53
2017-09-16T00:04:40.099Z,89.72
2017-09-16T00:05:08.052Z,89.82
2017-09-16T00:05:35.951Z,89.63
2017-09-16T00:06:04.225Z,89.82
2017-09-16T00:06:32.233Z,89.34
2017-09-16T00:07:00.334Z,89.92
2017-09-16T00:07:28.452Z,89.72
2017-09-16T00:07:56.367Z,89.43
2017-09-16T00:08:24.394Z,89.92
2017-09-16T00:08:52.432Z,89.72
2017-09-16T00:09:20.489Z,89.92
2017-09-16T00:09:48.423Z,90.3
2017-09-16T00:10:16.462Z,90.4
2017-09-16T00:10:44.475Z,90.4
2017-09-16T00:11:12.489Z,90.88
2017-09-16T00:11:40.211Z,90.2
2017-09-16T00:12:08.107Z,90.78
2017-09-16T00:12:36.047Z,91.36
2017-09-16T00:13:04.184Z,90.97
2017-09-16T00:13:32.493Z,90.97
2017-09-16T00:14:00.434Z,91.36
2017-09-16T00:14:28.449Z,91.17
2017-09-16T00:14:56.529Z,91.55
2017-09-16T00:15:24.472Z,91.07
2017-09-16T00:15:52.688Z,91.46
2017-09-16T00:16:20.599Z,91.17
2017-09-16T00:16:48.328Z,91.36
2017-09-16T00:17:16.230Z,91.65
2017-09-16T00:17:44.255Z,91.84
2017-09-16T00:18:12.109Z,91.46
2017-09-16T00:18:40.211Z,91.36
2017-09-16T00:19:08.396Z,92.52
2017-09-16T00:19:36.510Z,92.42
2017-09-16T00:20:04.527Z,92.61
2017-09-16T00:20:32.518Z,91.84
2017-09-16T00:21:00.534Z,91.36
2017-09-16T00:21:28.694Z,91.36
2017-09-16T00:21:56.825Z,91.17
2017-09-16T00:22:25.787Z,91.46
2017-09-16T00:22:53.818Z,91.46
2017-09-16T00:23:21.946Z,92.13
2017-09-16T00:23:49.980Z,92.71
2017-09-16T00:24:17.886Z,92.8
2017-09-16T00:24:46.020Z,92.61
2017-09-16T00:25:14.154Z,92.42
2017-09-16T00:25:42.190Z,92.22
2017-09-16T00:26:10.282Z,92.03
2017-09-16T00:26:38.079Z,92.32
2017-09-16T00:27:06.216Z,91.55
2017-09-16T00:27:34.352Z,90.78
2017-09-16T00:28:02.274Z,90.4
2017-09-16T00:28:30.368Z,89.92
2017-09-16T00:28:58.462Z,89.82
2017-09-16T00:29:26.499Z,89.34
2017-09-16T00:29:54.551Z,89.34
2017-09-16T00:30:23.054Z,88.67
2017-09-16T00:30:52.178Z,89.15
2017-09-16T00:31:20.400Z,89.05
2017-09-16T00:31:48.709Z,89.53
2017-09-16T00:32:16.721Z,89.53
2017-09-16T00:32:44.812Z,89.15
2017-09-16T00:33:12.649Z,89.01
2017-09-16T00:33:40.779Z,88.81
2017-09-16T00:34:08.733Z,89.58
2017-09-16T00:34:36.655Z,89.39
2017-09-16T00:35:04.513Z,89.2
2017-09-16T00:35:32.628Z,89.29
2017-09-16T00:36:00.635Z,89.68
2017-09-16T00:36:28.764Z,89.49
2017-09-16T00:36:56.724Z,90.26
2017-09-16T00:37:24.867Z,90.45
2017-09-16T00:37:52.779Z,90.35
2017-09-16T00:38:20.821Z,90.26
2017-09-16T00:38:48.750Z,90.83
2017-09-16T00:39:16.697Z,90.93
2017-09-16T00:39:44.630Z,90.64
2017-09-16T00:40:13.734Z,91.41
2017-09-16T00:40:41.597Z,91.41
2017-09-16T00:41:09.631Z,90.93
2017-09-16T00:41:37.576Z,90.73
2017-09-16T00:42:05.598Z,90.83
2017-09-16T00:42:33.514Z,90.79
2017-09-16T00:43:01.738Z,90.64
2017-09-16T00:43:29.860Z,90.73
2017-09-16T00:43:57.696Z,90.59
2017-09-16T00:44:25.744Z,91.51
2017-09-16T00:44:53.902Z,90.93
2017-09-16T00:45:21.927Z,91.03
2017-09-16T00:45:50.070Z,91.22
2017-09-16T00:46:18.192Z,91.31
2017-09-16T00:46:46.351Z,91.13
2017-09-16T00:47:14.392Z,91.31
2017-09-16T00:47:42.420Z,91.22
2017-09-16T00:48:10.472Z,91.41
2017-09-16T00:48:38.486Z,91.6
2017-09-16T00:49:06.998Z,91.13
2017-09-16T00:49:35.725Z,91.51
2017-09-16T00:50:04.356Z,91.13
2017-09-16T00:50:34.004Z,91.22
2017-09-16T00:51:02.365Z,91.13
2017-09-16T00:51:30.292Z,91.6
2017-09-16T00:51:58.362Z,91.41
2017-09-16T00:52:26.826Z,91.41
2017-09-16T00:52:55.655Z,91.22
2017-09-16T00:53:23.697Z,91.41
2017-09-16T00:53:51.531Z,91.41
2017-09-16T00:54:19.699Z,91.31
2017-09-16T00:54:47.733Z,91.51
2017-09-16T00:55:15.776Z,91.13
2017-09-16T00:55:43.874Z,90.93
2017-09-16T00:56:11.804Z,90.93
2017-09-16T00:56:39.642Z,90.73
2017-09-16T00:57:07.663Z,90.93
2017-09-16T00:57:35.674Z,90.73
2017-09-16T00:58:03.789Z,90.55
2017-09-16T00:58:31.600Z,90.73
2017-09-16T00:58:59.604Z,90.64
2017-09-16T00:59:27.546Z,90.26
2017-09-16T00:59:55.722Z,90.35
2017-09-16T01:00:23.852Z,90.73
2017-09-16T01:00:52.238Z,90.64
2017-09-16T01:01:20.052Z,90.64
2017-09-16T01:01:48.176Z,90.64
2017-09-16T01:02:16.339Z,90.73
2017-09-16T01:02:44.410Z,90.64
2017-09-16T01:03:12.421Z,90.64
2017-09-16T01:03:40.537Z,91.03
2017-09-16T01:04:08.661Z,90.73
2017-09-16T01:04:36.675Z,91.03
2017-09-16T01:05:04.611Z,90.55
2017-09-16T01:05:32.623Z,90.45
2017-09-16T01:06:00.659Z,90.55
2017-09-16T01:06:28.735Z,90.55
2017-09-16T01:06:56.888Z,90.55
2017-09-16T01:07:25.008Z,90.64
2017-09-16T01:07:52.941Z,90.83
2017-09-16T01:08:20.958Z,90.26
2017-09-16T01:08:48.970Z,90.35
2017-09-16T01:09:17.105Z,89.78
2017-09-16T01:09:44.957Z,89.29
2017-09-16T01:10:12.981Z,89.78
2017-09-16T01:10:40.935Z,90.16
2017-09-16T01:11:09.142Z,89.78
2017-09-16T01:11:37.057Z,89.97
2017-09-16T01:12:05.103Z,89.78
2017-09-16T01:12:33.262Z,89.97
2017-09-16T01:13:01.408Z,90.16
2017-09-16T01:13:29.545Z,90.55
2017-09-16T01:13:57.645Z,91.31
2017-09-16T01:14:25.668Z,91.41
2017-09-16T01:14:53.678Z,91.51
2017-09-16T01:15:21.692Z,91.51
2017-09-16T01:15:49.818Z,91.31
2017-09-16T01:16:17.728Z,91.17
2017-09-16T01:16:45.764Z,91.31
2017-09-16T01:17:13.706Z,91.51
2017-09-16T01:17:41.945Z,90.93
2017-09-16T01:18:10.061Z,91.51
2017-09-16T01:18:38.058Z,91.7
2017-09-16T01:19:05.886Z,92.18
2017-09-16T01:19:34.004Z,92.38
2017-09-16T01:20:02.136Z,92.52
2017-09-16T01:20:30.249Z,91.99
2017-09-16T01:20:58.388Z,92.81
2017-09-16T01:21:26.311Z,92.52
2017-09-16T01:21:54.448Z,92.66
2017-09-16T01:22:23.654Z,93.19
2017-09-16T01:22:52.781Z,93.38
2017-09-16T01:23:21.300Z,93.19
2017-09-16T01:23:49.996Z,92.71
2017-09-16T01:24:20.720Z,93
2017-09-16T01:24:48.758Z,93.48
2017-09-16T01:25:16.679Z,93.29
2017-09-16T01:25:44.804Z,93
2017-09-16T01:26:12.928Z,93.38
2017-09-16T01:26:41.720Z,93.38
2017-09-16T01:27:09.858Z,93.29
2017-09-16T01:27:37.951Z,93.38
2017-09-16T01:28:05.884Z,93.19
2017-09-16T01:28:34.035Z,93.87
2017-09-16T01:29:02.048Z,93.96
2017-09-16T01:29:29.961Z,93.96
2017-09-16T01:29:57.967Z,93.68
2017-09-16T01:30:25.897Z,93.77
2017-09-16T01:30:54.120Z,94.06
2017-09-16T01:31:22.145Z,94.45
2017-09-16T01:31:49.975Z,94.06
2017-09-16T01:32:18.122Z,94.54
2017-09-16T01:32:46.104Z,94.06
2017-09-16T01:33:14.224Z,93.68
2017-09-16T01:33:42.352Z,94.25
2017-09-16T01:34:10.384Z,93.96
2017-09-16T01:34:38.226Z,93.58
2017-09-16T01:35:07.145Z,94.45
2017-09-16T01:35:35.185Z,94.25
2017-09-16T01:36:03.245Z,94.21
2017-09-16T01:36:31.261Z,94.06
2017-09-16T01:36:59.405Z,94.4
2017-09-16T01:37:28.280Z,94.45
2017-09-16T01:37:56.305Z,94.06
2017-09-16T01:38:24.331Z,93.87
2017-09-16T01:38:52.243Z,94.83
2017-09-16T01:39:20.177Z,95.02
2017-09-16T01:39:48.310Z,94.78
2017-09-16T01:40:16.341Z,94.88
2017-09-16T01:40:44.474Z,94.88
2017-09-16T01:41:12.594Z,94.78
2017-09-16T01:41:41.495Z,94.88
2017-09-16T01:42:09.449Z,94.78
2017-09-16T01:42:37.476Z,95.17
2017-09-16T01:43:05.410Z,95.07
2017-09-16T01:43:33.745Z,94.98
2017-09-16T01:44:01.854Z,95.07
2017-09-16T01:44:29.986Z,95.07
2017-09-16T01:44:58.129Z,94.88
2017-09-16T01:45:26.254Z,95.45
2017-09-16T01:45:54.172Z,95.45
2017-09-16T01:46:22.113Z,95.36
2017-09-16T01:46:50.158Z,94.98
2017-09-16T01:47:18.237Z,95.07
2017-09-16T01:47:46.340Z,95.4
2017-09-16T01:48:14.470Z,94.68
2017-09-16T01:48:42.492Z,94.83
2017-09-16T01:49:10.307Z,94.78
2017-09-16T01:49:38.327Z,94.15
2017-09-16T01:50:06.380Z,94.45
2017-09-16T01:50:35.287Z,94.4
2017-09-16T01:51:03.318Z,94.06
2017-09-16T01:51:31.342Z,93.96
2017-09-16T01:51:59.376Z,94.15
2017-09-16T01:52:28.302Z,93.87
2017-09-16T01:52:56.445Z,94.06
2017-09-16T01:53:24.571Z,93.96
2017-09-16T01:53:52.714Z,94.15
2017-09-16T01:54:20.734Z,94.15
2017-09-16T01:54:48.800Z,94.25
2017-09-16T01:55:16.832Z,94.25
2017-09-16T01:55:44.974Z,93.58
2017-09-16T01:56:13.851Z,93.87
2017-09-16T01:56:41.869Z,93.87
2017-09-16T01:57:09.888Z,94.06
2017-09-16T01:57:37.844Z,93.87
2017-09-16T01:58:05.963Z,93.96
2017-09-16T01:58:33.982Z,93
2017-09-16T01:59:02.038Z,93
2017-09-16T01:59:30.162Z,92.91
2017-09-16T01:59:58.317Z,93.1
2017-09-16T02:00:26.240Z,93.77
2017-09-16T02:00:54.371Z,93.87
2017-09-16T02:01:22.475Z,93.77
2017-09-16T02:01:50.616Z,94.35
2017-09-16T02:02:18.733Z,94.15
2017-09-16T02:02:46.868Z,94.35
2017-09-16T02:03:14.594Z,94.06
2017-09-16T02:03:42.722Z,94.15
2017-09-16T02:04:10.760Z,93.96
2017-09-16T02:04:38.808Z,93.96
2017-09-16T02:05:06.927Z,94.15
2017-09-16T02:05:35.052Z,94.25
2017-09-16T02:06:03.271Z,94.45
2017-09-16T02:06:31.132Z,94.25
2017-09-16T02:06:59.278Z,94.06
2017-09-16T02:07:27.335Z,94.35
2017-09-16T02:07:55.338Z,93.96
2017-09-16T02:08:23.458Z,93.87
2017-09-16T02:08:51.405Z,94.35
2017-09-16T02:09:19.317Z,94.45
2017-09-16T02:09:47.549Z,93.96
2017-09-16T02:10:15.474Z,94.25
2017-09-16T02:10:43.462Z,94.01
2017-09-16T02:11:11.394Z,94.98
2017-09-16T02:11:39.225Z,95.12
2017-09-16T02:12:07.165Z,94.54
2017-09-16T02:12:35.126Z,94.73
2017-09-16T02:13:03.152Z,94.68
2017-09-16T02:13:31.183Z,94.64
2017-09-16T02:13:59.165Z,94.59
2017-09-16T02:14:27.294Z,95.45
2017-09-16T02:14:55.141Z,94.98
2017-09-16T02:15:23.175Z,95.17
2017-09-16T02:15:51.386Z,95.17
2017-09-16T02:16:19.317Z,95.17
2017-09-16T02:16:47.322Z,95.84
2017-09-16T02:17:15.460Z,95.75
2017-09-16T02:17:43.277Z,95.94
2017-09-16T02:18:11.204Z,95.84
2017-09-16T02:18:39.319Z,95.94
2017-09-16T02:19:07.342Z,95.36
2017-09-16T02:19:35.458Z,95.07
2017-09-16T02:20:03.496Z,95.26
2017-09-16T02:20:31.508Z,94.98
2017-09-16T02:20:59.641Z,95.26
2017-09-16T02:21:27.783Z,94.88
2017-09-16T02:21:55.723Z,95.26
2017-09-16T02:22:23.765Z,95.36
2017-09-16T02:22:51.878Z,95.26
2017-09-16T02:23:19.944Z,94.73
2017-09-16T02:23:48.103Z,94.92
2017-09-16T02:24:16.108Z,94.78
2017-09-16T02:24:44.254Z,94.64
2017-09-16T02:25:12.381Z,94.92
2017-09-16T02:25:40.515Z,94.92
2017-09-16T02:26:08.531Z,94.73
2017-09-16T02:26:36.640Z,94.83
2017-09-16T02:27:04.768Z,95.02
2017-09-16T02:27:32.884Z,94.68
2017-09-16T02:28:00.909Z,94.78
2017-09-16T02:28:29.052Z,94.64
2017-09-16T02:28:57.071Z,95.02
2017-09-16T02:29:25.091Z,94.92
2017-09-16T02:29:53.324Z,94.78
2017-09-16T02:30:21.350Z,95.31
2017-09-16T02:30:49.355Z,95.5
2017-09-16T02:31:17.376Z,95.5
2017-09-16T02:31:45.384Z,95.31
2017-09-16T02:32:13.509Z,95.36
2017-09-16T02:32:41.506Z,94.92
2017-09-16T02:33:09.606Z,94.64
2017-09-16T02:33:37.641Z,94.59
2017-09-16T02:34:05.751Z,94.98
2017-09-16T02:34:33.685Z,95.07
2017-09-16T02:35:01.818Z,94.78
2017-09-16T02:35:29.999Z,94.92
2017-09-16T02:35:58.122Z,94.88
2017-09-16T02:36:26.027Z,95.21
2017-09-16T02:36:54.066Z,94.88
2017-09-16T02:37:22.206Z,95.17
2017-09-16T02:37:50.351Z,95.21
2017-09-16T02:38:18.387Z,94.98
2017-09-16T02:38:46.315Z,95.07
2017-09-16T02:39:14.445Z,95.07
2017-09-16T02:39:42.576Z,95.98
2017-09-16T02:40:10.594Z,95.84
2017-09-16T02:40:38.515Z,95.75
2017-09-16T02:41:06.531Z,95.84
2017-09-16T02:41:34.551Z,95.84
2017-09-16T02:42:02.466Z,96.32
2017-09-16T02:42:30.603Z,96.13
2017-09-16T02:42:58.411Z,95.65
2017-09-16T02:43:26.454Z,96.22
2017-09-16T02:43:54.479Z,96.13
2017-09-16T02:44:22.493Z,96.22
2017-09-16T02:44:50.506Z,95.65
2017-09-16T02:45:19.398Z,95.84
2017-09-16T02:45:47.753Z,95.07
2017-09-16T02:46:15.760Z,95.07
2017-09-16T02:46:43.929Z,95.17
2017-09-16T02:47:12.111Z,94.73
2017-09-16T02:47:40.139Z,94.78
2017-09-16T02:48:08.196Z,94.49
2017-09-16T02:48:36.341Z,94.01
2017-09-16T02:49:04.356Z,93.87
2017-09-16T02:49:32.383Z,94.15
2017-09-16T02:50:00.494Z,94.06
2017-09-16T02:50:28.500Z,94.25
2017-09-16T02:50:56.612Z,94.25
2017-09-16T02:51:24.651Z,94.73
2017-09-16T02:51:52.653Z,94.73
2017-09-16T02:52:20.555Z,94.49
2017-09-16T02:52:48.440Z,94.54
2017-09-16T02:53:16.485Z,94.64
2017-09-16T02:53:44.357Z,94.59
2017-09-16T02:54:12.379Z,94.83
2017-09-16T02:54:40.501Z,94.92
2017-09-16T02:55:08.526Z,94.25
2017-09-16T02:55:36.543Z,94.06
2017-09-16T02:56:04.648Z,94.06
2017-09-16T02:56:32.805Z,93.77
2017-09-16T02:57:00.958Z,93.77
2017-09-16T02:57:29.148Z,94.45
2017-09-16T02:57:57.343Z,94.45
2017-09-16T02:58:25.383Z,94.25
2017-09-16T02:58:53.517Z,94.45
2017-09-16T02:59:21.660Z,94.45
2017-09-16T02:59:49.506Z,94.06
2017-09-16T03:00:17.419Z,94.83
2017-09-16T03:00:45.449Z,95.02
2017-09-16T03:01:13.588Z,94.06
2017-09-16T03:01:41.630Z,94.49
2017-09-16T03:02:09.756Z,94.73
2017-09-16T03:02:37.863Z,94.35
2017-09-16T03:03:05.871Z,94.83
2017-09-16T03:03:33.844Z,94.64
2017-09-16T03:04:01.771Z,94.83
2017-09-16T03:04:29.807Z,94.83
2017-09-16T03:04:57.780Z,95.45
2017-09-16T03:05:25.812Z,95.21
2017-09-16T03:05:54.787Z,94.98
2017-09-16T03:06:22.717Z,94.92
2017-09-16T03:06:50.640Z,94.98
2017-09-16T03:07:18.596Z,94.64
2017-09-16T03:07:46.737Z,94.78
2017-09-16T03:08:14.871Z,94.4
2017-09-16T03:08:43.012Z,94.4
2017-09-16T03:09:11.031Z,93.96
2017-09-16T03:09:39.130Z,93.77
2017-09-16T03:10:07.262Z,93.91
2017-09-16T03:10:35.280Z,93.91
2017-09-16T03:11:03.478Z,93.77
2017-09-16T03:11:31.395Z,93.77
2017-09-16T03:11:59.520Z,93.96
2017-09-16T03:12:27.463Z,94.25
2017-09-16T03:12:55.603Z,94.06
2017-09-16T03:13:23.716Z,93.58
2017-09-16T03:13:51.766Z,93.68
2017-09-16T03:14:19.796Z,93.91
2017-09-16T03:14:47.958Z,93.77
2017-09-16T03:15:16.086Z,94.25
2017-09-16T03:15:44.108Z,94.54
2017-09-16T03:16:12.341Z,94.88
2017-09-16T03:16:40.341Z,94.25
2017-09-16T03:17:08.272Z,94.92
2017-09-16T03:17:36.290Z,94.88
2017-09-16T03:18:04.401Z,94.45
2017-09-16T03:18:32.493Z,95.12
2017-09-16T03:19:00.509Z,95.21
2017-09-16T03:19:28.437Z,94.64
2017-09-16T03:19:56.562Z,95.31
2017-09-16T03:20:24.595Z,94.73
2017-09-16T03:20:52.617Z,94.98
2017-09-16T03:21:20.820Z,95.12
2017-09-16T03:21:48.857Z,94.68
2017-09-16T03:22:16.796Z,94.83
2017-09-16T03:22:44.861Z,94.68
2017-09-16T03:23:13.765Z,94.45
2017-09-16T03:23:41.666Z,94.78
2017-09-16T03:24:09.575Z,94.45
2017-09-16T03:24:37.676Z,94.06
2017-09-16T03:25:05.695Z,93.77
2017-09-16T03:25:33.624Z,94.45
2017-09-16T03:26:01.760Z,94.21
2017-09-16T03:26:29.789Z,94.3
2017-09-16T03:26:57.706Z,94.54
2017-09-16T03:27:25.650Z,94.06
2017-09-16T03:27:53.678Z,93.77
2017-09-16T03:28:21.576Z,93.77
2017-09-16T03:28:49.693Z,94.35
2017-09-16T03:29:17.727Z,94.83
2017-09-16T03:29:45.763Z,95.02
2017-09-16T03:30:13.670Z,94.54
2017-09-16T03:30:41.565Z,94.83
2017-09-16T03:31:09.695Z,94.25
2017-09-16T03:31:37.839Z,94.15
2017-09-16T03:32:05.848Z,93.77
2017-09-16T03:32:33.986Z,93.63
2017-09-16T03:33:02.100Z,93.87
2017-09-16T03:33:29.927Z,93.91
2017-09-16T03:33:57.937Z,94.01
2017-09-16T03:34:25.967Z,94.06
2017-09-16T03:34:54.095Z,94.73
2017-09-16T03:35:22.213Z,94.83
2017-09-16T03:35:50.221Z,95.31
2017-09-16T03:36:18.332Z,94.92
2017-09-16T03:36:46.482Z,95.4
2017-09-16T03:37:14.637Z,95.12
2017-09-16T03:37:42.560Z,94.78
2017-09-16T03:38:10.574Z,94.3
2017-09-16T03:38:38.756Z,94.59
2017-09-16T03:39:06.673Z,94.98
2017-09-16T03:39:35.036Z,95.36
2017-09-16T03:40:02.992Z,95.17
2017-09-16T03:40:30.913Z,95.94
2017-09-16T03:40:58.943Z,94.98
2017-09-16T03:41:27.391Z,95.94
2017-09-16T03:41:55.492Z,95.84
2017-09-16T03:42:23.410Z,95.75
2017-09-16T03:42:51.428Z,95.75
2017-09-16T03:43:19.563Z,95.94
2017-09-16T03:43:47.683Z,96.22
2017-09-16T03:44:15.495Z,96.22
2017-09-16T03:44:43.433Z,96.32
2017-09-16T03:45:11.574Z,96.32
2017-09-16T03:45:39.615Z,96.03
2017-09-16T03:46:07.814Z,95.94
2017-09-16T03:46:35.960Z,95.45
2017-09-16T03:47:04.077Z,96.13
2017-09-16T03:47:32.113Z,95.84
2017-09-16T03:48:00.047Z,95.65
2017-09-16T03:48:28.853Z,95.75
2017-09-16T03:48:56.782Z,95.55
2017-09-16T03:49:24.611Z,96.61
2017-09-16T03:49:52.758Z,96.99
2017-09-16T03:50:20.688Z,96.99
2017-09-16T03:50:48.946Z,96.8
2017-09-16T03:51:16.989Z,96.7
2017-09-16T03:51:45.119Z,96.7
2017-09-16T03:52:13.134Z,96.61
2017-09-16T03:52:41.264Z,97.09
2017-09-16T03:53:09.392Z,96.7
2017-09-16T03:53:37.312Z,96.8
2017-09-16T03:54:05.350Z,97.19
2017-09-16T03:54:33.471Z,96.61
2017-09-16T03:55:01.481Z,96.7
2017-09-16T03:55:29.589Z,97.09
2017-09-16T03:55:57.746Z,97.19
2017-09-16T03:56:25.974Z,97.47
2017-09-16T03:56:54.113Z,96.99
2017-09-16T03:57:22.142Z,97.09
2017-09-16T03:57:50.045Z,97.57
2017-09-16T03:58:17.781Z,97.38
2017-09-16T03:58:45.906Z,97.38
2017-09-16T03:59:14.011Z,98.05
2017-09-16T03:59:42.010Z,97.67
2017-09-16T04:00:10.033Z,97.09
2017-09-16T04:00:38.163Z,96.99
2017-09-16T04:01:06.049Z,97.57
2017-09-16T04:01:34.159Z,97.86
2017-09-16T04:02:02.280Z,97.96
2017-09-16T04:02:30.326Z,97.86
2017-09-16T04:02:58.481Z,98.14
2017-09-16T04:03:26.601Z,97.96
2017-09-16T04:03:54.526Z,97.57
2017-09-16T04:04:22.489Z,98.39
2017-09-16T04:04:50.560Z,97.86
2017-09-16T04:05:18.524Z,98.96
2017-09-16T04:05:46.628Z,98.77
2017-09-16T04:06:14.648Z,98.96
2017-09-16T04:06:42.769Z,98.96
2017-09-16T04:07:10.791Z,98.58
2017-09-16T04:07:38.918Z,98.77
2017-09-16T04:08:07.149Z,98.58
2017-09-16T04:08:35.186Z,98.86
2017-09-16T04:09:03.291Z,98.68
2017-09-16T04:09:31.414Z,98.68
2017-09-16T04:09:59.562Z,98.96
2017-09-16T04:10:27.592Z,98.86
2017-09-16T04:10:55.620Z,98.19
2017-09-16T04:11:23.855Z,98.19
2017-09-16T04:11:51.905Z,98.63
2017-09-16T04:12:20.024Z,97.91
2017-09-16T04:12:48.232Z,97.96
2017-09-16T04:13:16.362Z,98.1
2017-09-16T04:13:44.372Z,98.39
2017-09-16T04:14:12.399Z,97.86
2017-09-16T04:14:40.442Z,97.62
2017-09-16T04:15:08.469Z,97.71
2017-09-16T04:15:36.605Z,97.91
2017-09-16T04:16:04.619Z,97.91
2017-09-16T04:16:32.671Z,97.81
2017-09-16T04:17:00.385Z,97.81
2017-09-16T04:17:28.396Z,97.52
2017-09-16T04:17:56.516Z,97.81
2017-09-16T04:18:24.563Z,97.81
2017-09-16T04:18:52.362Z,97.71
2017-09-16T04:19:20.359Z,98
2017-09-16T04:19:48.480Z,97.91
2017-09-16T04:20:16.624Z,98
2017-09-16T04:20:44.771Z,98
2017-09-16T04:21:12.782Z,97.52
2017-09-16T04:21:40.930Z,97.42
2017-09-16T04:22:08.735Z,97.57
2017-09-16T04:22:36.864Z,98.1
2017-09-16T04:23:05.010Z,97.81
2017-09-16T04:23:33.129Z,97.71
2017-09-16T04:24:01.257Z,97.81
2017-09-16T04:24:29.275Z,98
2017-09-16T04:24:57.211Z,97.42
2017-09-16T04:25:25.230Z,98.48
2017-09-16T04:25:53.339Z,98.58
2017-09-16T04:26:21.381Z,98.53
2017-09-16T04:26:49.420Z,97.62
2017-09-16T04:27:17.546Z,97.91
2017-09-16T04:27:45.759Z,97.52
2017-09-16T04:28:13.908Z,97.52
2017-09-16T04:28:42.032Z,98.19
2017-09-16T04:29:10.233Z,98.58
2017-09-16T04:29:38.261Z,98.48
2017-09-16T04:30:06.389Z,98.1
2017-09-16T04:30:34.654Z,98.96
2017-09-16T04:31:03.051Z,98
2017-09-16T04:31:31.118Z,98.39
2017-09-16T04:31:59.254Z,98.96
2017-09-16T04:32:27.280Z,98.48
2017-09-16T04:32:55.308Z,98.39
2017-09-16T04:33:23.311Z,97.91
2017-09-16T04:33:51.313Z,98.29
2017-09-16T04:34:19.332Z,98.29
2017-09-16T04:34:47.279Z,98.58
2017-09-16T04:35:15.307Z,97.81
2017-09-16T04:35:43.445Z,97.91
2017-09-16T04:36:11.485Z,98
2017-09-16T04:36:39.705Z,97.96
2017-09-16T04:37:07.640Z,97.81
2017-09-16T04:37:35.671Z,98.39
2017-09-16T04:38:03.802Z,98.29
2017-09-16T04:38:31.813Z,98.19
2017-09-16T04:38:59.636Z,98.48
2017-09-16T04:39:27.650Z,99.15
2017-09-16T04:39:56.047Z,98.96
2017-09-16T04:40:24.333Z,98.77
2017-09-16T04:40:52.471Z,99.06
2017-09-16T04:41:21.404Z,98.68
2017-09-16T04:41:49.302Z,98.48
2017-09-16T04:42:17.303Z,98.77
2017-09-16T04:42:45.282Z,99.06
2017-09-16T04:43:13.354Z,99.06
2017-09-16T04:43:41.390Z,98.86
2017-09-16T04:44:09.427Z,99.25
2017-09-16T04:44:37.460Z,99.44
2017-09-16T04:45:05.278Z,99.63
2017-09-16T04:45:33.309Z,99.54
2017-09-16T04:46:01.346Z,99.73
2017-09-16T04:46:29.478Z,99.92
2017-09-16T04:46:57.299Z,99.99
2017-09-16T04:47:25.426Z,99.99
2017-09-16T04:47:53.235Z,99.99
2017-09-16T04:48:21.367Z,99.99
2017-09-16T04:48:49.506Z,99.99
2017-09-16T04:49:17.639Z,99.99
2017-09-16T04:49:45.686Z,99.99
2017-09-16T04:50:13.796Z,99.99
2017-09-16T04:50:41.922Z,99.99
2017-09-16T04:51:09.834Z,99.99
2017-09-16T04:51:37.901Z,99.99
2017-09-16T04:52:06.049Z,99.99
2017-09-16T04:52:33.974Z,99.99
2017-09-16T04:53:02.124Z,99.99
2017-09-16T04:53:30.144Z,99.99
2017-09-16T04:53:58.183Z,99.99
2017-09-16T04:54:26.311Z,99.99
2017-09-16T04:54:54.251Z,99.99
2017-09-16T04:55:22.347Z,99.99
2017-09-16T04:55:50.367Z,99.99
2017-09-16T04:56:18.524Z,99.99
2017-09-16T04:56:46.567Z,99.99
2017-09-16T04:57:14.609Z,99.99
2017-09-16T04:57:42.629Z,99.99
2017-09-16T04:58:10.596Z,99.99
2017-09-16T04:58:38.718Z,99.99
2017-09-16T04:59:06.747Z,99.99
2017-09-16T04:59:34.894Z,99.99
2017-09-16T05:00:02.931Z,99.99
2017-09-16T05:00:30.866Z,99.99
2017-09-16T05:00:58.809Z,99.99
2017-09-16T05:01:26.941Z,99.99
2017-09-16T05:01:54.966Z,99.99
2017-09-16T05:02:23.110Z,99.99
2017-09-16T05:02:51.014Z,99.99
2017-09-16T05:03:18.974Z,99.99
2017-09-16T05:03:46.759Z,99.99
2017-09-16T05:04:14.874Z,99.99
2017-09-16T05:04:42.956Z,99.99
2017-09-16T05:05:11.861Z,99.99
2017-09-16T05:05:39.892Z,99.99
2017-09-16T05:06:07.916Z,99.99
2017-09-16T05:06:36.041Z,99.99
2017-09-16T05:07:04.093Z,99.99
2017-09-16T05:07:32.118Z,99.99
2017-09-16T05:08:00.262Z,99.99
2017-09-16T05:08:28.280Z,99.99
2017-09-16T05:08:56.391Z,99.99
2017-09-16T05:09:24.518Z,99.99
2017-09-16T05:09:52.557Z,99.99
2017-09-16T05:10:20.570Z,99.99
2017-09-16T05:10:48.598Z,99.99
2017-09-16T05:11:16.636Z,99.99
2017-09-16T05:11:45.189Z,99.99
2017-09-16T05:12:13.102Z,99.99
2017-09-16T05:12:41.138Z,99.99
2017-09-16T05:13:08.854Z,99.99
2017-09-16T05:13:36.999Z,99.99
2017-09-16T05:14:04.949Z,99.99
2017-09-16T05:14:32.970Z,99.73
2017-09-16T05:15:01.089Z,99.73
2017-09-16T05:15:29.130Z,99.73
2017-09-16T05:15:57.242Z,99.35
2017-09-16T05:16:25.342Z,99.68
2017-09-16T05:16:53.581Z,99.54
2017-09-16T05:17:21.625Z,99.73
2017-09-16T05:17:49.577Z,99.49
2017-09-16T05:18:17.628Z,99.4
2017-09-16T05:18:45.743Z,99.35
2017-09-16T05:19:13.673Z,99.83
2017-09-16T05:19:41.724Z,99.73
2017-09-16T05:20:09.752Z,99.78
2017-09-16T05:20:37.874Z,99.83
2017-09-16T05:21:05.792Z,99.92
2017-09-16T05:21:33.927Z,99.63
2017-09-16T05:22:01.949Z,99.49
2017-09-16T05:22:30.049Z,99.99
2017-09-16T05:22:58.185Z,99.99
2017-09-16T05:23:26.000Z,99.99
2017-09-16T05:23:54.035Z,99.99
2017-09-16T05:24:22.170Z,99.99
2017-09-16T05:24:50.196Z,99.99
2017-09-16T05:25:18.224Z,99.99
2017-09-16T05:25:46.523Z,99.99
2017-09-16T05:26:14.642Z,99.99
2017-09-16T05:26:42.823Z,99.99
2017-09-16T05:27:10.860Z,99.99
2017-09-16T05:27:38.784Z,99.99
2017-09-16T05:28:06.597Z,99.99
2017-09-16T05:28:34.710Z,99.99
2017-09-16T05:29:02.823Z,99.99
2017-09-16T05:29:30.888Z,99.99
2017-09-16T05:29:59.038Z,99.99
2017-09-16T05:30:26.868Z,99.99
2017-09-16T05:30:54.978Z,99.99
2017-09-16T05:31:23.102Z,99.99
2017-09-16T05:31:51.157Z,99.99
2017-09-16T05:32:19.206Z,99.99
2017-09-16T05:32:47.152Z,99.99
2017-09-16T05:33:15.168Z,99.99
2017-09-16T05:33:43.271Z,99.99
2017-09-16T05:34:11.429Z,99.99
2017-09-16T05:34:39.461Z,99.99
2017-09-16T05:35:07.504Z,99.99
2017-09-16T05:35:35.514Z,99.99
2017-09-16T05:36:03.453Z,99.99
2017-09-16T05:36:31.471Z,99.99
2017-09-16T05:36:59.698Z,99.99
2017-09-16T05:37:27.653Z,99.99
2017-09-16T05:37:55.644Z,99.99
2017-09-16T05:38:23.783Z,99.99
2017-09-16T05:38:51.714Z,99.99
2017-09-16T05:39:19.641Z,99.99
2017-09-16T05:39:47.567Z,99.99
2017-09-16T05:40:15.391Z,99.99
2017-09-16T05:40:43.436Z,99.99
2017-09-16T05:41:11.571Z,99.99
2017-09-16T05:41:39.618Z,99.99
2017-09-16T05:42:07.642Z,99.99
2017-09-16T05:42:35.684Z,99.99
2017-09-16T05:43:03.708Z,99.99
2017-09-16T05:43:31.635Z,99.99
2017-09-16T05:43:59.654Z,99.99
2017-09-16T05:44:27.691Z,99.99
2017-09-16T05:44:55.766Z,99.99
2017-09-16T05:45:23.792Z,99.99
2017-09-16T05:45:51.903Z,99.99
2017-09-16T05:46:19.929Z,99.99
2017-09-16T05:46:47.977Z,99.99
2017-09-16T05:47:16.193Z,99.99
2017-09-16T05:47:44.047Z,99.99
2017-09-16T05:48:12.183Z,99.99
2017-09-16T05:48:40.233Z,99.99
2017-09-16T05:49:08.261Z,99.99
2017-09-16T05:49:36.211Z,99.99
2017-09-16T05:50:04.358Z,99.99
2017-09-16T05:50:32.387Z,99.99
2017-09-16T05:51:00.524Z,99.99
2017-09-16T05:51:28.565Z,99.99
2017-09-16T05:51:56.694Z,99.99
2017-09-16T05:52:24.690Z,99.99
2017-09-16T05:52:52.809Z,99.99
2017-09-16T05:53:20.826Z,99.99
2017-09-16T05:53:48.863Z,99.99
2017-09-16T05:54:17.002Z,99.99
2017-09-16T05:54:45.137Z,99.99
2017-09-16T05:55:13.183Z,99.99
2017-09-16T05:55:41.197Z,99.99
2017-09-16T05:56:09.326Z,99.99
2017-09-16T05:56:37.369Z,99.99
2017-09-16T05:57:05.545Z,99.99
2017-09-16T05:57:33.557Z,99.99
2017-09-16T05:58:01.619Z,99.99
2017-09-16T05:58:29.740Z,99.99
2017-09-16T05:58:57.868Z,99.99
2017-09-16T05:59:25.773Z,99.99
2017-09-16T05:59:53.880Z,99.99
2017-09-16T06:00:21.905Z,99.99
2017-09-16T06:00:50.013Z,99.99
2017-09-16T06:01:18.079Z,99.99
2017-09-16T06:01:46.105Z,99.99
2017-09-16T06:02:14.007Z,99.99
2017-09-16T06:02:42.160Z,99.99